Other Surface Observations
Issued by NWS Los Angeles, CA

Home | Current Version | Previous Version | Text Only | Print | Product List | Glossary On
Versions: 1 2 3
000
SXUS56 KLOX 121339
OSOLOX

OFFSHORE OIL PLATFORM HARVEST WEATHER
NATIONAL WEATHER SERVICE OXNARD CA
640 AM PDT FRI SEP 12 2014

OBSERVATION FROM DRILLING RIG "HARVEST"
LOCATION 34 DEG 28 MIN N...120 DEG 41 MIN W...12 MILES W
PT CONCEPTION ANEMOMETER LOCATED 163 FEET ABOVE SEA LEVEL.
WIND SENSOR IS PARTIALLY BLOCKED BY OIL RIG STRUCTURE.

SPECI 121332Z 34015KT 0SM FG VV000 14/14 A2986 RMKS
SEAS 4 TO 6 FEET

$$



























































































































































































































































































































USA.gov is the U.S. government's official web portal to all federal, state and local government web resources and services.